sensor_id;sensor_type;location;lat;lon;timestamp;temperature;humidity
10692;DHT22;5396;50.950;6.988;2023-03-13T00:03:46;11.10;99.90
10692;DHT22;5396;50.950;6.988;2023-03-13T00:06:12;11.10;99.90
10692;DHT22;5396;50.950;6.988;2023-03-13T00:08:38;11.20;99.90
10692;DHT22;5396;50.950;6.988;2023-03-13T00:11:09;11.20;99.90
10692;DHT22;5396;50.950;6.988;2023-03-13T00:13:34;11.20;99.90
10692;DHT22;5396;50.950;6.988;2023-03-13T00:16:02;11.30;99.90
10692;DHT22;5396;50.950;6.988;2023-03-13T00:18:27;11.40;99.90
10692;DHT22;5396;50.950;6.988;2023-03-13T00:21:06;11.40;99.90
10692;DHT22;5396;50.950;6.988;2023-03-13T00:23:33;11.40;99.90
10692;DHT22;5396;50.950;6.988;2023-03-13T00:26:01;11.50;99.90
10692;DHT22;5396;50.950;6.988;2023-03-13T00:28:29;11.50;99.90
10692;DHT22;5396;50.950;6.988;2023-03-13T00:31:06;11.50;99.90
10692;DHT22;5396;50.950;6.988;2023-03-13T00:33:36;11.60;99.90
10692;DHT22;5396;50.950;6.988;2023-03-13T00:36:07;11.70;99.90
10692;DHT22;5396;50.950;6.988;2023-03-13T00:38:34;11.70;99.90
10692;DHT22;5396;50.950;6.988;2023-03-13T00:41:14;11.70;99.90
10692;DHT22;5396;50.950;6.988;2023-03-13T00:43:41;11.70;99.90
10692;DHT22;5396;50.950;6.988;2023-03-13T00:46:07;11.70;99.90
10692;DHT22;5396;50.950;6.988;2023-03-13T00:48:33;11.70;99.90
10692;DHT22;5396;50.950;6.988;2023-03-13T00:51:00;11.70;99.90
10692;DHT22;5396;50.950;6.988;2023-03-13T00:53:26;11.70;99.90
10692;DHT22;5396;50.950;6.988;2023-03-13T00:56:15;11.60;99.90
10692;DHT22;5396;50.950;6.988;2023-03-13T00:58:42;11.50;99.90
10692;DHT22;5396;50.950;6.988;2023-03-13T01:03:41;11.50;99.90
10692;DHT22;5396;50.950;6.988;2023-03-13T01:06:11;11.40;99.90
10692;DHT22;5396;50.950;6.988;2023-03-13T01:08:37;11.40;99.90
10692;DHT22;5396;50.950;6.988;2023-03-13T01:11:15;11.40;99.90
10692;DHT22;5396;50.950;6.988;2023-03-13T01:13:41;11.30;99.90
10692;DHT22;5396;50.950;6.988;2023-03-13T01:16:11;11.30;99.90
10692;DHT22;5396;50.950;6.988;2023-03-13T01:18:40;11.30;99.90
10692;DHT22;5396;50.950;6.988;2023-03-13T01:21:07;11.30;99.90
10692;DHT22;5396;50.950;6.988;2023-03-13T01:23:33;11.20;99.90
10692;DHT22;5396;50.950;6.988;2023-03-13T01:25:59;11.20;99.90
10692;DHT22;5396;50.950;6.988;2023-03-13T01:28:25;11.20;99.90
10692;DHT22;5396;50.950;6.988;2023-03-13T01:30:52;11.20;99.90
10692;DHT22;5396;50.950;6.988;2023-03-13T01:33:17;11.10;99.90
10692;DHT22;5396;50.950;6.988;2023-03-13T01:35:44;11.10;99.90
10692;DHT22;5396;50.950;6.988;2023-03-13T01:38:10;11.10;99.90
10692;DHT22;5396;50.950;6.988;2023-03-13T01:40:40;11.10;99.90
10692;DHT22;5396;50.950;6.988;2023-03-13T01:43:18;11.10;99.90
10692;DHT22;5396;50.950;6.988;2023-03-13T01:46:08;11.10;99.90
10692;DHT22;5396;50.950;6.988;2023-03-13T01:51:37;11.30;99.90
10692;DHT22;5396;50.950;6.988;2023-03-13T01:54:12;11.30;99.90
10692;DHT22;5396;50.950;6.988;2023-03-13T01:56:44;11.40;99.90
10692;DHT22;5396;50.950;6.988;2023-03-13T01:59:14;11.40;99.90
10692;DHT22;5396;50.950;6.988;2023-03-13T02:01:43;11.50;99.90
10692;DHT22;5396;50.950;6.988;2023-03-13T02:04:12;11.50;99.90
10692;DHT22;5396;50.950;6.988;2023-03-13T02:06:40;11.60;99.90
10692;DHT22;5396;50.950;6.988;2023-03-13T02:09:11;11.60;99.90
10692;DHT22;5396;50.950;6.988;2023-03-13T02:11:48;11.70;99.90
10692;DHT22;5396;50.950;6.988;2023-03-13T02:14:17;11.70;99.90
10692;DHT22;5396;50.950;6.988;2023-03-13T02:16:44;11.80;99.90
10692;DHT22;5396;50.950;6.988;2023-03-13T02:19:19;11.80;99.90
10692;DHT22;5396;50.950;6.988;2023-03-13T02:27:18;11.80;99.90
10692;DHT22;5396;50.950;6.988;2023-03-13T02:29:44;11.80;99.90
10692;DHT22;5396;50.950;6.988;2023-03-13T02:32:10;11.80;99.90
10692;DHT22;5396;50.950;6.988;2023-03-13T02:34:38;11.70;99.90
10692;DHT22;5396;50.950;6.988;2023-03-13T02:37:06;11.60;99.90
10692;DHT22;5396;50.950;6.988;2023-03-13T02:39:35;11.50;99.90
10692;DHT22;5396;50.950;6.988;2023-03-13T02:42:04;11.50;99.90
10692;DHT22;5396;50.950;6.988;2023-03-13T02:44:29;11.50;99.90
10692;DHT22;5396;50.950;6.988;2023-03-13T02:46:55;11.40;99.90
10692;DHT22;5396;50.950;6.988;2023-03-13T02:49:26;11.30;99.90
10692;DHT22;5396;50.950;6.988;2023-03-13T02:51:58;11.20;99.90
10692;DHT22;5396;50.950;6.988;2023-03-13T02:54:30;11.10;99.90
10692;DHT22;5396;50.950;6.988;2023-03-13T02:57:01;11.10;99.90
10692;DHT22;5396;50.950;6.988;2023-03-13T02:59:27;11.10;99.90
10692;DHT22;5396;50.950;6.988;2023-03-13T03:01:53;11.00;99.90
10692;DHT22;5396;50.950;6.988;2023-03-13T03:04:23;11.00;99.90
10692;DHT22;5396;50.950;6.988;2023-03-13T03:06:49;11.10;99.90
10692;DHT22;5396;50.950;6.988;2023-03-13T03:09:15;11.10;99.90
10692;DHT22;5396;50.950;6.988;2023-03-13T03:11:41;11.10;99.90
10692;DHT22;5396;50.950;6.988;2023-03-13T03:14:08;11.10;99.90
10692;DHT22;5396;50.950;6.988;2023-03-13T03:16:34;11.10;99.90
10692;DHT22;5396;50.950;6.988;2023-03-13T03:19:00;11.00;99.90
10692;DHT22;5396;50.950;6.988;2023-03-13T03:21:25;11.00;99.90
10692;DHT22;5396;50.950;6.988;2023-03-13T03:23:51;11.10;99.90
10692;DHT22;5396;50.950;6.988;2023-03-13T03:26:17;11.10;99.90
10692;DHT22;5396;50.950;6.988;2023-03-13T03:28:42;11.20;99.90
10692;DHT22;5396;50.950;6.988;2023-03-13T03:31:10;11.20;99.90
10692;DHT22;5396;50.950;6.988;2023-03-13T03:33:37;11.30;99.90
10692;DHT22;5396;50.950;6.988;2023-03-13T03:36:06;11.30;99.90
10692;DHT22;5396;50.950;6.988;2023-03-13T03:38:32;11.40;99.90
10692;DHT22;5396;50.950;6.988;2023-03-13T03:40:57;11.40;99.90
10692;DHT22;5396;50.950;6.988;2023-03-13T03:43:23;11.40;99.90
10692;DHT22;5396;50.950;6.988;2023-03-13T03:45:49;11.50;99.90
10692;DHT22;5396;50.950;6.988;2023-03-13T03:48:14;11.50;99.90
10692;DHT22;5396;50.950;6.988;2023-03-13T03:50:40;11.60;99.90
10692;DHT22;5396;50.950;6.988;2023-03-13T03:53:06;11.60;99.90
10692;DHT22;5396;50.950;6.988;2023-03-13T03:55:32;11.70;99.90
10692;DHT22;5396;50.950;6.988;2023-03-13T03:57:58;11.70;99.90
10692;DHT22;5396;50.950;6.988;2023-03-13T04:00:23;11.70;99.90
10692;DHT22;5396;50.950;6.988;2023-03-13T04:02:49;11.70;99.90
10692;DHT22;5396;50.950;6.988;2023-03-13T04:05:15;11.80;99.90
10692;DHT22;5396;50.950;6.988;2023-03-13T04:07:40;11.80;99.90
10692;DHT22;5396;50.950;6.988;2023-03-13T04:10:06;11.80;99.90
10692;DHT22;5396;50.950;6.988;2023-03-13T04:12:32;11.80;99.90
10692;DHT22;5396;50.950;6.988;2023-03-13T04:14:58;11.90;99.90
10692;DHT22;5396;50.950;6.988;2023-03-13T04:17:23;11.90;99.90
10692;DHT22;5396;50.950;6.988;2023-03-13T04:19:49;12.00;99.90
10692;DHT22;5396;50.950;6.988;2023-03-13T04:22:14;12.00;99.90
10692;DHT22;5396;50.950;6.988;2023-03-13T04:24:40;12.10;99.90
10692;DHT22;5396;50.950;6.988;2023-03-13T04:27:07;12.10;99.90
10692;DHT22;5396;50.950;6.988;2023-03-13T04:29:33;12.10;99.90
10692;DHT22;5396;50.950;6.988;2023-03-13T04:31:59;12.10;99.90
10692;DHT22;5396;50.950;6.988;2023-03-13T04:34:25;12.10;99.90
10692;DHT22;5396;50.950;6.988;2023-03-13T04:36:51;12.10;99.90
10692;DHT22;5396;50.950;6.988;2023-03-13T04:39:16;12.10;99.90
10692;DHT22;5396;50.950;6.988;2023-03-13T04:41:42;12.10;99.90
10692;DHT22;5396;50.950;6.988;2023-03-13T04:44:07;12.10;99.90
10692;DHT22;5396;50.950;6.988;2023-03-13T04:46:33;12.10;99.90
10692;DHT22;5396;50.950;6.988;2023-03-13T04:48:59;12.20;99.90
10692;DHT22;5396;50.950;6.988;2023-03-13T04:51:24;12.20;99.90
10692;DHT22;5396;50.950;6.988;2023-03-13T04:53:50;12.10;99.90
10692;DHT22;5396;50.950;6.988;2023-03-13T04:56:24;12.10;99.90
10692;DHT22;5396;50.950;6.988;2023-03-13T04:58:51;12.20;99.90
10692;DHT22;5396;50.950;6.988;2023-03-13T05:01:16;12.20;99.90
10692;DHT22;5396;50.950;6.988;2023-03-13T05:03:42;12.30;99.90
10692;DHT22;5396;50.950;6.988;2023-03-13T05:06:08;12.20;99.90
10692;DHT22;5396;50.950;6.988;2023-03-13T05:08:33;12.30;99.90
10692;DHT22;5396;50.950;6.988;2023-03-13T05:11:01;12.30;99.90
10692;DHT22;5396;50.950;6.988;2023-03-13T05:13:26;12.30;99.90
10692;DHT22;5396;50.950;6.988;2023-03-13T05:15:52;12.30;99.90
10692;DHT22;5396;50.950;6.988;2023-03-13T05:18:18;12.30;99.90
10692;DHT22;5396;50.950;6.988;2023-03-13T05:20:43;12.20;99.90
10692;DHT22;5396;50.950;6.988;2023-03-13T05:23:09;12.30;99.90
10692;DHT22;5396;50.950;6.988;2023-03-13T05:25:35;12.30;99.90
10692;DHT22;5396;50.950;6.988;2023-03-13T05:28:00;12.30;99.90
10692;DHT22;5396;50.950;6.988;2023-03-13T05:30:26;12.30;99.90
10692;DHT22;5396;50.950;6.988;2023-03-13T05:32:52;12.30;99.90
10692;DHT22;5396;50.950;6.988;2023-03-13T05:35:17;12.30;99.90
10692;DHT22;5396;50.950;6.988;2023-03-13T05:37:43;12.30;99.90
10692;DHT22;5396;50.950;6.988;2023-03-13T05:40:10;12.30;99.90
10692;DHT22;5396;50.950;6.988;2023-03-13T05:42:36;12.30;99.90
10692;DHT22;5396;50.950;6.988;2023-03-13T05:45:02;12.40;99.90
10692;DHT22;5396;50.950;6.988;2023-03-13T05:47:27;12.40;99.90
10692;DHT22;5396;50.950;6.988;2023-03-13T05:49:53;12.50;99.90
10692;DHT22;5396;50.950;6.988;2023-03-13T05:52:19;12.50;99.90
10692;DHT22;5396;50.950;6.988;2023-03-13T05:54:44;12.50;99.90
10692;DHT22;5396;50.950;6.988;2023-03-13T05:57:10;12.50;99.90
10692;DHT22;5396;50.950;6.988;2023-03-13T05:59:35;12.50;99.90
10692;DHT22;5396;50.950;6.988;2023-03-13T06:02:01;12.40;99.90
10692;DHT22;5396;50.950;6.988;2023-03-13T06:04:27;12.50;99.90
10692;DHT22;5396;50.950;6.988;2023-03-13T06:06:52;12.50;99.90
10692;DHT22;5396;50.950;6.988;2023-03-13T06:09:19;12.50;99.90
10692;DHT22;5396;50.950;6.988;2023-03-13T06:11:45;12.60;99.90
10692;DHT22;5396;50.950;6.988;2023-03-13T06:14:10;12.70;99.90
10692;DHT22;5396;50.950;6.988;2023-03-13T06:16:36;12.70;99.90
10692;DHT22;5396;50.950;6.988;2023-03-13T06:19:01;12.80;99.90
10692;DHT22;5396;50.950;6.988;2023-03-13T06:21:27;12.80;99.90
10692;DHT22;5396;50.950;6.988;2023-03-13T06:23:54;12.90;99.90
10692;DHT22;5396;50.950;6.988;2023-03-13T06:26:20;12.90;99.90
10692;DHT22;5396;50.950;6.988;2023-03-13T06:28:47;13.10;99.90
10692;DHT22;5396;50.950;6.988;2023-03-13T06:31:12;13.10;99.90
10692;DHT22;5396;50.950;6.988;2023-03-13T06:33:38;13.10;99.90
10692;DHT22;5396;50.950;6.988;2023-03-13T06:36:04;13.10;99.90
10692;DHT22;5396;50.950;6.988;2023-03-13T06:38:30;13.10;99.90
10692;DHT22;5396;50.950;6.988;2023-03-13T06:40:56;13.10;99.90
10692;DHT22;5396;50.950;6.988;2023-03-13T06:43:22;13.20;99.90
10692;DHT22;5396;50.950;6.988;2023-03-13T06:45:47;13.20;99.90
10692;DHT22;5396;50.950;6.988;2023-03-13T06:48:13;13.20;99.90
10692;DHT22;5396;50.950;6.988;2023-03-13T06:50:40;13.30;99.90
10692;DHT22;5396;50.950;6.988;2023-03-13T06:53:05;13.30;99.90
10692;DHT22;5396;50.950;6.988;2023-03-13T06:55:31;13.30;99.90
10692;DHT22;5396;50.950;6.988;2023-03-13T06:57:57;13.30;99.90
10692;DHT22;5396;50.950;6.988;2023-03-13T07:00:23;13.40;99.90
10692;DHT22;5396;50.950;6.988;2023-03-13T07:02:49;13.30;99.90
10692;DHT22;5396;50.950;6.988;2023-03-13T07:05:15;13.30;99.90
10692;DHT22;5396;50.950;6.988;2023-03-13T07:07:42;13.40;99.90
10692;DHT22;5396;50.950;6.988;2023-03-13T07:10:09;13.40;99.90
10692;DHT22;5396;50.950;6.988;2023-03-13T07:12:36;13.40;99.90
10692;DHT22;5396;50.950;6.988;2023-03-13T07:15:02;13.40;99.90
10692;DHT22;5396;50.950;6.988;2023-03-13T07:17:28;13.40;99.90
10692;DHT22;5396;50.950;6.988;2023-03-13T07:19:53;13.50;99.90
10692;DHT22;5396;50.950;6.988;2023-03-13T07:22:19;13.50;99.90
10692;DHT22;5396;50.950;6.988;2023-03-13T07:24:44;13.50;99.90
10692;DHT22;5396;50.950;6.988;2023-03-13T07:27:10;13.60;99.90
10692;DHT22;5396;50.950;6.988;2023-03-13T07:29:35;13.60;99.90
10692;DHT22;5396;50.950;6.988;2023-03-13T07:32:01;13.80;99.90
10692;DHT22;5396;50.950;6.988;2023-03-13T07:34:27;13.90;99.90
10692;DHT22;5396;50.950;6.988;2023-03-13T07:36:52;13.90;99.90
10692;DHT22;5396;50.950;6.988;2023-03-13T07:39:18;13.90;99.90
10692;DHT22;5396;50.950;6.988;2023-03-13T07:41:43;14.00;99.90
10692;DHT22;5396;50.950;6.988;2023-03-13T07:44:09;14.00;99.90
10692;DHT22;5396;50.950;6.988;2023-03-13T07:46:34;14.20;99.90
10692;DHT22;5396;50.950;6.988;2023-03-13T07:49:00;14.30;99.90
10692;DHT22;5396;50.950;6.988;2023-03-13T07:51:26;14.60;99.90
10692;DHT22;5396;50.950;6.988;2023-03-13T07:53:52;14.70;99.90
10692;DHT22;5396;50.950;6.988;2023-03-13T07:56:22;14.80;99.90
10692;DHT22;5396;50.950;6.988;2023-03-13T07:58:48;14.90;99.90
10692;DHT22;5396;50.950;6.988;2023-03-13T08:03:40;14.90;99.90
10692;DHT22;5396;50.950;6.988;2023-03-13T08:06:08;14.90;99.90
10692;DHT22;5396;50.950;6.988;2023-03-13T08:08:34;14.90;99.90
10692;DHT22;5396;50.950;6.988;2023-03-13T08:11:05;14.90;99.90
10692;DHT22;5396;50.950;6.988;2023-03-13T08:13:31;14.90;99.90
10692;DHT22;5396;50.950;6.988;2023-03-13T08:16:05;14.80;99.90
10692;DHT22;5396;50.950;6.988;2023-03-13T08:18:31;14.80;99.90
10692;DHT22;5396;50.950;6.988;2023-03-13T08:21:04;14.80;99.90
10692;DHT22;5396;50.950;6.988;2023-03-13T08:23:30;14.70;99.90
10692;DHT22;5396;50.950;6.988;2023-03-13T08:26:08;14.70;99.90
10692;DHT22;5396;50.950;6.988;2023-03-13T08:28:35;14.60;99.90
10692;DHT22;5396;50.950;6.988;2023-03-13T08:31:16;14.60;99.90
10692;DHT22;5396;50.950;6.988;2023-03-13T08:33:43;14.60;99.90
10692;DHT22;5396;50.950;6.988;2023-03-13T08:36:16;14.60;99.90
10692;DHT22;5396;50.950;6.988;2023-03-13T08:38:42;14.60;99.90
10692;DHT22;5396;50.950;6.988;2023-03-13T08:41:10;14.60;99.90
10692;DHT22;5396;50.950;6.988;2023-03-13T08:43:36;14.50;99.90
10692;DHT22;5396;50.950;6.988;2023-03-13T08:46:01;14.40;99.90
10692;DHT22;5396;50.950;6.988;2023-03-13T08:48:27;14.30;99.90
10692;DHT22;5396;50.950;6.988;2023-03-13T08:51:00;14.10;99.90
10692;DHT22;5396;50.950;6.988;2023-03-13T08:53:27;14.00;99.90
10692;DHT22;5396;50.950;6.988;2023-03-13T08:55:53;14.10;99.90
10692;DHT22;5396;50.950;6.988;2023-03-13T08:58:18;14.20;99.90
10692;DHT22;5396;50.950;6.988;2023-03-13T09:00:44;14.30;99.90
10692;DHT22;5396;50.950;6.988;2023-03-13T09:03:10;14.40;99.90
10692;DHT22;5396;50.950;6.988;2023-03-13T09:05:39;14.50;99.90
10692;DHT22;5396;50.950;6.988;2023-03-13T09:08:05;14.60;99.90
10692;DHT22;5396;50.950;6.988;2023-03-13T09:10:34;14.60;99.90
10692;DHT22;5396;50.950;6.988;2023-03-13T09:13:01;14.60;99.90
10692;DHT22;5396;50.950;6.988;2023-03-13T09:15:27;14.70;99.90
10692;DHT22;5396;50.950;6.988;2023-03-13T09:17:52;14.70;99.90
10692;DHT22;5396;50.950;6.988;2023-03-13T09:20:18;14.70;99.90
10692;DHT22;5396;50.950;6.988;2023-03-13T09:22:44;14.60;99.90
10692;DHT22;5396;50.950;6.988;2023-03-13T09:25:11;14.60;99.90
10692;DHT22;5396;50.950;6.988;2023-03-13T09:27:36;14.70;99.90
10692;DHT22;5396;50.950;6.988;2023-03-13T09:30:02;14.60;99.90
10692;DHT22;5396;50.950;6.988;2023-03-13T09:32:28;14.60;99.90
10692;DHT22;5396;50.950;6.988;2023-03-13T09:34:53;14.60;99.90
10692;DHT22;5396;50.950;6.988;2023-03-13T09:37:20;14.70;99.90
10692;DHT22;5396;50.950;6.988;2023-03-13T09:39:46;14.80;99.90
10692;DHT22;5396;50.950;6.988;2023-03-13T09:42:23;14.80;99.90
10692;DHT22;5396;50.950;6.988;2023-03-13T09:45:14;14.90;99.90
10692;DHT22;5396;50.950;6.988;2023-03-13T09:47:45;14.90;99.90
10692;DHT22;5396;50.950;6.988;2023-03-13T09:50:15;14.80;99.90
10692;DHT22;5396;50.950;6.988;2023-03-13T09:52:43;14.80;99.90
10692;DHT22;5396;50.950;6.988;2023-03-13T09:55:44;14.90;99.90
10692;DHT22;5396;50.950;6.988;2023-03-13T09:58:19;14.80;99.90
10692;DHT22;5396;50.950;6.988;2023-03-13T10:00:57;14.90;99.90
10692;DHT22;5396;50.950;6.988;2023-03-13T10:03:30;14.90;99.90
10692;DHT22;5396;50.950;6.988;2023-03-13T10:06:01;14.90;99.90
10692;DHT22;5396;50.950;6.988;2023-03-13T10:08:33;15.00;99.90
10692;DHT22;5396;50.950;6.988;2023-03-13T10:13:51;15.20;99.90
10692;DHT22;5396;50.950;6.988;2023-03-13T10:16:28;15.30;99.90
10692;DHT22;5396;50.950;6.988;2023-03-13T10:18:58;15.40;99.90
10692;DHT22;5396;50.950;6.988;2023-03-13T10:21:31;15.50;99.90
10692;DHT22;5396;50.950;6.988;2023-03-13T10:24:48;15.50;99.90
10692;DHT22;5396;50.950;6.988;2023-03-13T10:27:14;15.60;99.90
10692;DHT22;5396;50.950;6.988;2023-03-13T10:29:40;15.70;99.90
10692;DHT22;5396;50.950;6.988;2023-03-13T10:32:09;15.80;99.90
10692;DHT22;5396;50.950;6.988;2023-03-13T10:34:49;16.00;99.90
10692;DHT22;5396;50.950;6.988;2023-03-13T10:37:27;16.20;99.90
10692;DHT22;5396;50.950;6.988;2023-03-13T10:39:53;16.40;99.90
10692;DHT22;5396;50.950;6.988;2023-03-13T10:42:30;16.50;99.90
10692;DHT22;5396;50.950;6.988;2023-03-13T10:44:59;16.60;99.90
10692;DHT22;5396;50.950;6.988;2023-03-13T10:47:26;16.70;99.90
10692;DHT22;5396;50.950;6.988;2023-03-13T10:49:56;16.70;99.90
10692;DHT22;5396;50.950;6.988;2023-03-13T10:52:34;16.80;99.90
10692;DHT22;5396;50.950;6.988;2023-03-13T10:55:02;16.80;99.90
10692;DHT22;5396;50.950;6.988;2023-03-13T10:57:33;16.90;99.90
10692;DHT22;5396;50.950;6.988;2023-03-13T10:59:59;17.00;99.90
10692;DHT22;5396;50.950;6.988;2023-03-13T11:02:33;17.10;99.90
10692;DHT22;5396;50.950;6.988;2023-03-13T11:05:52;17.20;99.90
10692;DHT22;5396;50.950;6.988;2023-03-13T11:07:46;17.30;99.90
10692;DHT22;5396;50.950;6.988;2023-03-13T11:10:19;17.30;99.90
10692;DHT22;5396;50.950;6.988;2023-03-13T11:12:49;17.30;99.90
10692;DHT22;5396;50.950;6.988;2023-03-13T11:15:22;17.20;99.90
10692;DHT22;5396;50.950;6.988;2023-03-13T11:17:57;17.00;99.90
10692;DHT22;5396;50.950;6.988;2023-03-13T11:20:34;16.90;99.90
10692;DHT22;5396;50.950;6.988;2023-03-13T11:23:16;16.90;99.90
10692;DHT22;5396;50.950;6.988;2023-03-13T11:26:23;17.00;99.90
10692;DHT22;5396;50.950;6.988;2023-03-13T11:31:46;17.40;99.90
10692;DHT22;5396;50.950;6.988;2023-03-13T11:34:30;17.40;99.90
10692;DHT22;5396;50.950;6.988;2023-03-13T11:37:17;17.60;99.90
10692;DHT22;5396;50.950;6.988;2023-03-13T11:39:49;17.60;99.90
10692;DHT22;5396;50.950;6.988;2023-03-13T11:42:47;17.70;99.90
10692;DHT22;5396;50.950;6.988;2023-03-13T11:54:08;17.70;99.90
10692;DHT22;5396;50.950;6.988;2023-03-13T11:56:49;17.90;99.90
10692;DHT22;5396;50.950;6.988;2023-03-13T12:01:56;18.00;99.90
10692;DHT22;5396;50.950;6.988;2023-03-13T12:05:08;18.00;99.90
10692;DHT22;5396;50.950;6.988;2023-03-13T12:07:37;17.90;99.90
10692;DHT22;5396;50.950;6.988;2023-03-13T12:15:31;17.60;99.90
10692;DHT22;5396;50.950;6.988;2023-03-13T12:18:02;17.60;99.90
10692;DHT22;5396;50.950;6.988;2023-03-13T12:31:06;17.50;99.90
10692;DHT22;5396;50.950;6.988;2023-03-13T12:33:55;17.40;99.90
10692;DHT22;5396;50.950;6.988;2023-03-13T12:36:29;17.40;99.90
10692;DHT22;5396;50.950;6.988;2023-03-13T12:39:13;17.50;99.90
10692;DHT22;5396;50.950;6.988;2023-03-13T12:41:43;17.60;99.90
10692;DHT22;5396;50.950;6.988;2023-03-13T12:44:18;17.80;99.90
10692;DHT22;5396;50.950;6.988;2023-03-13T12:47:07;17.90;99.90
10692;DHT22;5396;50.950;6.988;2023-03-13T12:52:49;17.70;99.90
10692;DHT22;5396;50.950;6.988;2023-03-13T13:00:38;17.90;99.90
10692;DHT22;5396;50.950;6.988;2023-03-13T13:06:12;17.90;99.90
10692;DHT22;5396;50.950;6.988;2023-03-13T13:08:46;18.00;99.90
10692;DHT22;5396;50.950;6.988;2023-03-13T13:16:58;17.80;99.90
10692;DHT22;5396;50.950;6.988;2023-03-13T13:22:43;17.80;99.90
10692;DHT22;5396;50.950;6.988;2023-03-13T13:37:40;17.00;99.90
10692;DHT22;5396;50.950;6.988;2023-03-13T13:42:57;17.00;99.90
10692;DHT22;5396;50.950;6.988;2023-03-13T13:47:51;17.10;99.90
10692;DHT22;5396;50.950;6.988;2023-03-13T13:50:36;17.10;99.90
10692;DHT22;5396;50.950;6.988;2023-03-13T13:53:31;17.20;99.90
10692;DHT22;5396;50.950;6.988;2023-03-13T13:55:58;17.10;99.90
10692;DHT22;5396;50.950;6.988;2023-03-13T13:58:27;17.10;99.90
10692;DHT22;5396;50.950;6.988;2023-03-13T14:01:00;17.00;99.90
10692;DHT22;5396;50.950;6.988;2023-03-13T14:03:31;17.10;99.90
10692;DHT22;5396;50.950;6.988;2023-03-13T14:06:19;17.30;99.90
10692;DHT22;5396;50.950;6.988;2023-03-13T14:08:45;17.50;99.90
10692;DHT22;5396;50.950;6.988;2023-03-13T14:11:29;17.40;99.90
10692;DHT22;5396;50.950;6.988;2023-03-13T14:14:17;17.60;99.90
10692;DHT22;5396;50.950;6.988;2023-03-13T14:16:45;17.90;99.90
10692;DHT22;5396;50.950;6.988;2023-03-13T14:19:29;18.00;99.90
10692;DHT22;5396;50.950;6.988;2023-03-13T14:22:00;18.30;99.90
10692;DHT22;5396;50.950;6.988;2023-03-13T14:24:26;18.70;99.90
10692;DHT22;5396;50.950;6.988;2023-03-13T14:26:52;18.60;99.90
10692;DHT22;5396;50.950;6.988;2023-03-13T14:29:19;18.30;99.90
10692;DHT22;5396;50.950;6.988;2023-03-13T14:31:52;18.00;99.90
10692;DHT22;5396;50.950;6.988;2023-03-13T14:34:18;18.00;99.90
10692;DHT22;5396;50.950;6.988;2023-03-13T14:36:55;17.90;99.90
10692;DHT22;5396;50.950;6.988;2023-03-13T14:39:42;17.70;99.90
10692;DHT22;5396;50.950;6.988;2023-03-13T14:42:12;17.60;99.90
10692;DHT22;5396;50.950;6.988;2023-03-13T14:44:38;17.30;99.90
10692;DHT22;5396;50.950;6.988;2023-03-13T14:47:08;17.20;99.90
10692;DHT22;5396;50.950;6.988;2023-03-13T14:49:38;17.10;99.90
10692;DHT22;5396;50.950;6.988;2023-03-13T14:52:12;17.00;99.90
10692;DHT22;5396;50.950;6.988;2023-03-13T14:54:52;17.00;99.90
10692;DHT22;5396;50.950;6.988;2023-03-13T14:57:20;17.00;99.90
10692;DHT22;5396;50.950;6.988;2023-03-13T14:59:48;17.00;99.90
10692;DHT22;5396;50.950;6.988;2023-03-13T15:05:00;17.00;99.90
10692;DHT22;5396;50.950;6.988;2023-03-13T15:07:47;17.00;99.90
10692;DHT22;5396;50.950;6.988;2023-03-13T15:10:35;17.00;99.90
10692;DHT22;5396;50.950;6.988;2023-03-13T15:13:32;17.00;99.90
10692;DHT22;5396;50.950;6.988;2023-03-13T15:15:59;17.00;99.90
10692;DHT22;5396;50.950;6.988;2023-03-13T15:18:30;17.00;99.90
10692;DHT22;5396;50.950;6.988;2023-03-13T15:21:18;17.00;99.90
10692;DHT22;5396;50.950;6.988;2023-03-13T15:24:01;16.90;99.90
10692;DHT22;5396;50.950;6.988;2023-03-13T15:26:28;16.90;99.90
10692;DHT22;5396;50.950;6.988;2023-03-13T15:28:53;16.90;99.90
10692;DHT22;5396;50.950;6.988;2023-03-13T15:31:24;16.90;99.90
10692;DHT22;5396;50.950;6.988;2023-03-13T15:33:55;16.90;99.90
10692;DHT22;5396;50.950;6.988;2023-03-13T15:36:21;16.90;99.90
10692;DHT22;5396;50.950;6.988;2023-03-13T15:38:46;16.80;99.90
10692;DHT22;5396;50.950;6.988;2023-03-13T15:41:12;16.80;99.90
10692;DHT22;5396;50.950;6.988;2023-03-13T15:43:38;16.80;99.90
10692;DHT22;5396;50.950;6.988;2023-03-13T15:46:08;16.80;99.90
10692;DHT22;5396;50.950;6.988;2023-03-13T15:48:34;16.80;99.90
10692;DHT22;5396;50.950;6.988;2023-03-13T15:51:02;16.80;99.90
10692;DHT22;5396;50.950;6.988;2023-03-13T15:53:31;16.80;99.90
10692;DHT22;5396;50.950;6.988;2023-03-13T15:55:59;16.80;99.90
10692;DHT22;5396;50.950;6.988;2023-03-13T15:58:26;17.10;99.90
10692;DHT22;5396;50.950;6.988;2023-03-13T16:00:53;17.50;99.90
10692;DHT22;5396;50.950;6.988;2023-03-13T16:03:24;18.30;99.90
10692;DHT22;5396;50.950;6.988;2023-03-13T16:05:51;19.00;99.90
10692;DHT22;5396;50.950;6.988;2023-03-13T16:08:19;19.60;99.90
10692;DHT22;5396;50.950;6.988;2023-03-13T16:10:45;20.30;99.90
10692;DHT22;5396;50.950;6.988;2023-03-13T16:13:11;20.10;99.90
10692;DHT22;5396;50.950;6.988;2023-03-13T16:15:37;19.90;99.90
10692;DHT22;5396;50.950;6.988;2023-03-13T16:18:04;19.60;99.90
10692;DHT22;5396;50.950;6.988;2023-03-13T16:20:31;19.60;99.90
10692;DHT22;5396;50.950;6.988;2023-03-13T16:22:57;19.80;99.90
10692;DHT22;5396;50.950;6.988;2023-03-13T16:25:23;19.90;99.90
10692;DHT22;5396;50.950;6.988;2023-03-13T16:27:49;19.90;99.90
10692;DHT22;5396;50.950;6.988;2023-03-13T16:32:46;19.80;99.90
10692;DHT22;5396;50.950;6.988;2023-03-13T16:35:12;20.10;99.90
10692;DHT22;5396;50.950;6.988;2023-03-13T16:37:37;20.40;99.90
10692;DHT22;5396;50.950;6.988;2023-03-13T16:40:14;19.90;99.90
10692;DHT22;5396;50.950;6.988;2023-03-13T16:42:40;19.10;99.90
10692;DHT22;5396;50.950;6.988;2023-03-13T16:45:06;18.30;99.90
10692;DHT22;5396;50.950;6.988;2023-03-13T16:47:32;17.60;99.90
10692;DHT22;5396;50.950;6.988;2023-03-13T16:49:59;17.00;99.90
10692;DHT22;5396;50.950;6.988;2023-03-13T16:52:25;16.70;99.90
10692;DHT22;5396;50.950;6.988;2023-03-13T16:54:51;16.40;99.90
10692;DHT22;5396;50.950;6.988;2023-03-13T16:57:23;16.20;99.90
10692;DHT22;5396;50.950;6.988;2023-03-13T16:59:49;16.10;99.90
10692;DHT22;5396;50.950;6.988;2023-03-13T17:02:17;16.00;99.90
10692;DHT22;5396;50.950;6.988;2023-03-13T17:04:44;15.90;99.90
10692;DHT22;5396;50.950;6.988;2023-03-13T17:07:18;15.80;99.90
10692;DHT22;5396;50.950;6.988;2023-03-13T17:09:45;15.70;99.90
10692;DHT22;5396;50.950;6.988;2023-03-13T17:12:11;15.70;99.90
10692;DHT22;5396;50.950;6.988;2023-03-13T17:14:36;15.60;99.90
10692;DHT22;5396;50.950;6.988;2023-03-13T17:17:02;15.50;99.90
10692;DHT22;5396;50.950;6.988;2023-03-13T17:19:28;15.50;99.90
10692;DHT22;5396;50.950;6.988;2023-03-13T17:21:54;15.50;99.90
10692;DHT22;5396;50.950;6.988;2023-03-13T17:24:20;15.40;99.90
10692;DHT22;5396;50.950;6.988;2023-03-13T17:26:45;15.30;99.90
10692;DHT22;5396;50.950;6.988;2023-03-13T17:29:16;15.40;99.90
10692;DHT22;5396;50.950;6.988;2023-03-13T17:31:43;15.30;99.90